createdAt,value
2023-04-02T00:02:24.005Z,77.20
2023-04-02T00:05:34.865Z,77.27
2023-04-02T00:08:41.080Z,77.34
2023-04-02T00:11:49.270Z,77.46
2023-04-02T00:14:55.482Z,77.16
2023-04-02T00:18:00.360Z,77.24
2023-04-02T00:21:16.932Z,77.27
2023-04-02T00:24:22.627Z,77.19
2023-04-02T00:27:28.507Z,77.27
2023-04-02T00:30:32.175Z,77.06
2023-04-02T00:33:35.910Z,77.17
2023-04-02T00:36:38.823Z,77.23
2023-04-02T00:39:41.608Z,77.11
2023-04-02T00:42:46.529Z,77.39
2023-04-02T00:45:58.642Z,77.28
2023-04-02T00:49:09.939Z,77.36
2023-04-02T00:52:18.486Z,77.46
2023-04-02T00:55:33.240Z,77.34
2023-04-02T00:58:37.924Z,77.37
2023-04-02T01:01:42.745Z,77.36
2023-04-02T01:04:58.906Z,77.45
2023-04-02T01:08:34.639Z,77.45
2023-04-02T01:12:03.249Z,77.76
2023-04-02T01:15:13.359Z,78.05
2023-04-02T01:18:21.057Z,77.98
2023-04-02T01:21:25.440Z,78.09
2023-04-02T01:24:33.284Z,77.64
2023-04-02T01:27:57.364Z,77.82
2023-04-02T01:31:01.955Z,77.87
2023-04-02T01:34:08.579Z,77.81
2023-04-02T01:37:22.876Z,78.03
2023-04-02T01:40:40.168Z,77.83
2023-04-02T01:43:58.577Z,77.98
2023-04-02T01:47:07.063Z,78.13
2023-04-02T01:50:31.933Z,78.01
2023-04-02T01:53:42.012Z,78.06
2023-04-02T01:56:47.613Z,78.00
2023-04-02T01:59:51.161Z,77.95
2023-04-02T02:02:54.231Z,78.16
2023-04-02T02:05:59.610Z,78.47
2023-04-02T02:09:06.576Z,78.25
2023-04-02T02:12:15.523Z,78.41
2023-04-02T02:15:22.233Z,78.53
2023-04-02T02:18:27.738Z,78.57
2023-04-02T02:21:44.508Z,78.86
2023-04-02T02:24:48.251Z,78.81
2023-04-02T02:28:21.739Z,79.14
2023-04-02T02:31:29.703Z,79.43
2023-04-02T02:34:43.527Z,79.18
2023-04-02T02:37:52.981Z,79.32
2023-04-02T02:41:04.573Z,79.35
2023-04-02T02:44:11.280Z,79.46
2023-04-02T02:47:33.755Z,79.41
2023-04-02T02:50:41.211Z,79.52
2023-04-02T02:53:49.948Z,79.46
2023-04-02T02:57:03.989Z,79.90
2023-04-02T03:00:09.932Z,80.02
2023-04-02T03:03:19.419Z,79.70
2023-04-02T03:06:24.566Z,79.57
2023-04-02T03:09:58.656Z,79.71
2023-04-02T03:13:29.623Z,80.06
2023-04-02T03:16:42.461Z,80.06
2023-04-02T03:19:52.169Z,80.24
2023-04-02T03:23:02.550Z,80.24
2023-04-02T03:26:12.822Z,80.38
2023-04-02T03:29:31.349Z,80.32
2023-04-02T03:32:39.253Z,80.32
2023-04-02T03:36:10.799Z,80.37
2023-04-02T03:39:21.035Z,80.62
2023-04-02T03:42:28.751Z,80.75
2023-04-02T03:45:41.102Z,80.48
2023-04-02T03:48:49.861Z,80.50
2023-04-02T03:52:02.755Z,80.57
2023-04-02T03:55:17.775Z,80.71
2023-04-02T03:58:27.112Z,80.84
2023-04-02T04:01:41.794Z,80.78
2023-04-02T04:04:48.537Z,80.86
2023-04-02T04:08:07.956Z,81.00
2023-04-02T04:11:20.011Z,81.18
2023-04-02T04:14:35.194Z,81.87
2023-04-02T04:17:54.447Z,81.75
2023-04-02T04:21:02.250Z,82.22
2023-04-02T04:24:20.402Z,82.37
2023-04-02T04:27:24.010Z,82.66
2023-04-02T04:30:35.006Z,82.78
2023-04-02T04:33:44.025Z,82.99
2023-04-02T04:36:54.912Z,83.24
2023-04-02T04:40:10.499Z,82.69
2023-04-02T04:43:30.261Z,82.65
2023-04-02T04:46:47.952Z,82.87
2023-04-02T04:50:06.548Z,82.28
2023-04-02T04:53:29.538Z,82.08
2023-04-02T04:56:37.708Z,81.98
2023-04-02T05:00:08.142Z,81.61
2023-04-02T05:03:33.053Z,81.00
2023-04-02T05:06:45.903Z,80.40
2023-04-02T05:09:59.112Z,79.56
2023-04-02T05:13:33.392Z,78.92
2023-04-02T05:16:43.712Z,78.24
2023-04-02T05:20:03.603Z,77.27
2023-04-02T05:23:23.677Z,76.59
2023-04-02T05:26:39.977Z,76.04
2023-04-02T05:29:51.025Z,75.51
2023-04-02T05:33:13.516Z,74.49
2023-04-02T05:36:32.576Z,73.84
2023-04-02T05:39:37.514Z,73.00
2023-04-02T05:42:46.477Z,71.73
2023-04-02T05:45:59.752Z,71.74
2023-04-02T05:49:18.421Z,69.87
2023-04-02T05:52:34.530Z,69.93
2023-04-02T05:56:27.419Z,68.79
2023-04-02T15:53:03.427Z,61.50
2023-04-02T15:56:47.017Z,62.27
2023-04-02T16:00:33.669Z,64.44
2023-04-02T16:04:05.600Z,71.52
2023-04-02T16:07:20.924Z,77.29
2023-04-02T16:10:42.928Z,76.88
2023-04-02T16:13:47.597Z,77.16
2023-04-02T16:17:21.717Z,78.24
2023-04-02T16:20:41.799Z,78.27
2023-04-02T16:23:49.593Z,79.11
2023-04-02T16:27:24.899Z,78.47
2023-04-02T16:31:04.684Z,80.10
2023-04-02T16:34:24.690Z,80.59
2023-04-02T16:38:10.032Z,80.66
2023-04-02T16:41:42.634Z,83.02
2023-04-02T16:45:18.035Z,81.27
2023-04-02T16:48:43.667Z,83.58
2023-04-02T16:52:06.541Z,83.29
2023-04-02T16:55:23.635Z,81.54
2023-04-02T16:58:37.645Z,81.57
2023-04-02T17:02:25.516Z,82.99
2023-04-02T17:06:00.605Z,84.60
2023-04-02T17:09:16.560Z,83.22
2023-04-02T17:12:28.356Z,82.35
2023-04-02T17:15:45.567Z,83.58
2023-04-02T17:18:58.438Z,83.56
2023-04-02T17:22:14.449Z,82.36
2023-04-02T17:25:32.766Z,80.82
2023-04-02T17:28:49.617Z,77.86
2023-04-02T17:32:01.925Z,77.13
2023-04-02T17:35:26.863Z,77.26
2023-04-02T17:39:00.399Z,76.38
2023-04-02T17:42:38.741Z,75.51
2023-04-02T17:46:04.617Z,74.59
2023-04-02T17:49:36.947Z,74.55
2023-04-02T17:53:02.710Z,74.40
2023-04-02T17:56:23.821Z,73.52
2023-04-02T17:59:56.532Z,74.21
2023-04-02T18:03:49.599Z,73.04
2023-04-02T18:07:23.586Z,71.63
2023-04-02T18:11:02.791Z,72.73
2023-04-02T18:14:34.586Z,72.64
2023-04-02T18:18:16.697Z,70.94
2023-04-02T18:21:34.525Z,69.87
2023-04-02T18:25:09.121Z,70.18
2023-04-02T18:28:34.542Z,70.41
2023-04-02T18:31:58.426Z,70.34
2023-04-02T18:35:24.726Z,69.99
2023-04-02T18:39:03.504Z,69.51
2023-04-02T18:42:26.796Z,69.96
2023-04-02T18:45:43.736Z,70.28
2023-04-02T18:49:22.545Z,70.34
2023-04-02T18:52:35.696Z,70.36
2023-04-02T18:56:05.834Z,70.38
2023-04-02T18:59:24.647Z,70.47
2023-04-02T19:02:57.498Z,69.68
2023-04-02T19:06:30.619Z,69.93
2023-04-02T19:09:44.857Z,69.96
2023-04-02T19:12:50.000Z,70.22
2023-04-02T19:16:16.554Z,69.79
2023-04-02T19:19:53.841Z,70.11
2023-04-02T19:23:34.675Z,70.23
2023-04-02T19:26:54.549Z,69.73
2023-04-02T19:30:42.625Z,69.78
2023-04-02T19:34:08.829Z,70.00
2023-04-02T19:37:35.425Z,69.39
2023-04-02T19:41:25.841Z,69.63
2023-04-02T19:44:36.847Z,69.76
2023-04-02T19:47:42.494Z,69.81
2023-04-02T19:51:00.891Z,69.79
2023-04-02T19:54:24.906Z,69.62
2023-04-02T19:57:38.571Z,69.90
2023-04-02T20:00:55.548Z,69.91
2023-04-02T20:04:05.910Z,69.42
2023-04-02T20:07:08.732Z,69.58
2023-04-02T20:10:13.753Z,69.54
2023-04-02T20:13:16.783Z,69.24
2023-04-02T20:16:23.521Z,69.21
2023-04-02T20:19:29.620Z,69.12
2023-04-02T20:22:43.883Z,69.16
2023-04-02T20:25:58.467Z,68.83
2023-04-02T20:29:09.548Z,68.69
2023-04-02T20:32:13.501Z,68.61
2023-04-02T20:35:29.896Z,68.84
2023-04-02T20:38:41.765Z,68.57
2023-04-02T20:41:49.543Z,68.65
2023-04-02T20:44:52.505Z,68.87
2023-04-02T20:47:56.874Z,68.78
2023-04-02T20:51:09.465Z,68.37
2023-04-02T20:54:30.085Z,68.52
2023-04-02T20:57:43.036Z,68.39
2023-04-02T21:00:53.690Z,68.00
2023-04-02T21:04:02.323Z,68.30
2023-04-02T21:07:16.520Z,68.26
2023-04-02T21:10:26.886Z,67.97
2023-04-02T21:13:38.484Z,68.37
2023-04-02T21:16:42.995Z,68.04
2023-04-02T21:19:52.386Z,68.24
2023-04-02T21:23:07.401Z,68.18
2023-04-02T21:26:16.855Z,68.13
2023-04-02T21:29:19.553Z,68.37
2023-04-02T21:32:24.052Z,68.23
2023-04-02T21:35:34.005Z,68.17
2023-04-02T21:38:47.610Z,68.28
2023-04-02T21:41:56.995Z,68.50
2023-04-02T21:45:00.150Z,68.42
2023-04-02T21:48:04.588Z,68.64
2023-04-02T21:51:21.780Z,68.53
2023-04-02T21:54:31.395Z,68.54
2023-04-02T21:57:34.734Z,68.73
2023-04-02T22:00:38.701Z,68.73
2023-04-02T22:03:43.552Z,68.78
2023-04-02T22:06:47.032Z,68.79
2023-04-02T22:09:52.285Z,68.62
2023-04-02T22:12:56.512Z,68.80
2023-04-02T22:16:03.661Z,68.67
2023-04-02T22:19:13.253Z,68.67
2023-04-02T22:22:16.633Z,68.81
2023-04-02T22:25:19.818Z,69.13
2023-04-02T22:28:23.603Z,69.27
2023-04-02T22:31:29.708Z,69.60
2023-04-02T22:34:34.547Z,71.57
2023-04-02T22:37:38.561Z,72.42
2023-04-02T22:40:42.786Z,72.82
2023-04-02T22:43:46.102Z,73.04
2023-04-02T22:46:49.359Z,73.11
2023-04-02T22:49:53.028Z,73.40
2023-04-02T22:52:56.883Z,73.91
2023-04-02T22:56:06.835Z,73.95
2023-04-02T22:59:11.562Z,73.84
2023-04-02T23:02:14.224Z,73.91
2023-04-02T23:05:17.600Z,75.07
2023-04-02T23:08:21.787Z,74.21
2023-04-02T23:11:28.454Z,74.18
2023-04-02T23:14:31.357Z,74.51
2023-04-02T23:17:36.142Z,74.52
2023-04-02T23:20:40.744Z,75.09
2023-04-02T23:23:51.589Z,74.97
2023-04-02T23:26:54.624Z,74.19
2023-04-02T23:29:57.629Z,73.84
2023-04-02T23:33:03.506Z,72.85
2023-04-02T23:36:10.304Z,73.01
2023-04-02T23:39:13.979Z,72.78
2023-04-02T23:42:18.756Z,72.50
2023-04-02T23:45:22.034Z,72.26
2023-04-02T23:48:25.445Z,72.29
2023-04-02T23:51:32.296Z,71.54
2023-04-02T23:54:35.719Z,71.55
2023-04-02T23:57:38.730Z,71.77
